Menalon — SXCH — position and weather

sailwx.info

Track history (hours):
 
Tides and Currents Weather Stations Pressure Air Temp Water Temp Dewpoint Dewpoint Depression Visibility Wind Speed Wind Dir Waves Ship Positions

Menalon

Last reported at 2017-Jun-23 22:00 UTC. Time now 2017-Jun-23 22:11 UTC.
Position N 37°56' E 023°34'.

Length 83 m; draft 4.2 m.

Type: Tanker. MMSI: 239741000.

Date/timePositionNaut miles runAvg speedWind from/ knotsBaromVisibWave heightAir tempDewpointWater temp
2017-Jun-23 22:00N 37°56' E 023°34'0 0.0
2017-Jun-23 21:30N 37°56' E 023°34'0 0.0
2017-Jun-23 21:00N 37°56' E 023°34'0 0.0
2017-Jun-23 20:30N 37°56' E 023°34'0 0.1
2017-Jun-23 20:00N 37°56' E 023°34'0 0.1
2017-Jun-23 19:30N 37°56' E 023°34'0 0.0
2017-Jun-23 19:00N 37°56' E 023°34'0 0.0
2017-Jun-23 18:30N 37°56' E 023°34'0 0.0
2017-Jun-23 18:00N 37°56' E 023°34'0 0.0
2017-Jun-23 17:30N 37°56' E 023°34'0 0.0
2017-Jun-23 17:00N 37°56' E 023°34'0 0.0
2017-Jun-23 16:30N 37°56' E 023°34'0 0.0
2017-Jun-23 16:00N 37°56' E 023°34'0 0.0
2017-Jun-23 15:30N 37°56' E 023°34'0 0.0
2017-Jun-23 15:00N 37°56' E 023°34'0 0.0
2017-Jun-23 14:00N 37°56' E 023°34'0 0.0
2017-Jun-23 13:30N 37°56' E 023°34'0 0.0
2017-Jun-23 13:00N 37°56' E 023°34'0 0.0
2017-Jun-23 12:30N 37°56' E 023°34'0 0.0
2017-Jun-23 12:00N 37°56' E 023°34'0 0.0
2017-Jun-23 11:30N 37°56' E 023°34'0 0.0
2017-Jun-23 11:00N 37°56' E 023°34'0 0.0
2017-Jun-23 10:30N 37°56' E 023°34'0 0.0
2017-Jun-23 10:00N 37°56' E 023°34'0 0.0
2017-Jun-23 09:30N 37°56' E 023°34'0 0.0
2017-Jun-23 09:00N 37°56' E 023°34'0 0.0
2017-Jun-23 08:30N 37°56' E 023°34'0 0.0
2017-Jun-23 08:00N 37°56' E 023°34'0 0.1
2017-Jun-23 07:30N 37°56' E 023°34'0 0.1
2017-Jun-23 07:00N 37°56' E 023°34'0 0.1
2017-Jun-23 06:30N 37°56' E 023°34'1 2.6
2017-Jun-23 06:00N 37°55' E 023°35'5 9.8
2017-Jun-23 05:30N 37°51' E 023°39'510.1
2017-Jun-23 05:00N 37°46' E 023°42'5 9.8
2017-Jun-23 04:30N 37°42' E 023°44'5 9.4
2017-Jun-23 04:00N 37°37' E 023°46'5 9.9
2017-Jun-23 03:30N 37°32' E 023°45'5 9.9
2017-Jun-23 03:00N 37°27' E 023°44'1210.0
2017-Jun-23 01:50N 37°16' E 023°42'29 9.8
2017-Jun-22 22:50N 36°47' E 023°38'91 9.5
2017-Jun-22 13:16N 35°16' E 023°30'2 9.0
2017-Jun-22 13:00N 35°14' E 023°31'143 2.8
2017-Jun-20 09:30N 37°37' E 023°43'5 9.1
2017-Jun-20 08:58N 37°42' E 023°41'4 9.4
2017-Jun-20 08:30N 37°46' E 023°39'5 9.3
2017-Jun-20 08:00N 37°50' E 023°36'5 9.4
2017-Jun-20 07:30N 37°54' E 023°34'1 2.8
2017-Jun-20 07:00N 37°55' E 023°33'0 0.0
2017-Jun-20 06:30N 37°55' E 023°33'0 0.0
2017-Jun-20 06:00N 37°55' E 023°33'0 0.0
2017-Jun-20 05:30N 37°55' E 023°33'0 0.1
2017-Jun-20 05:00N 37°55' E 023°33'2 3.8
2017-Jun-20 04:30N 37°57' E 023°34'3 6.4
2017-Jun-20 04:00N 38°00' E 023°33'2 3.4
2017-Jun-20 03:30N 38°01' E 023°35'0 0.0
2017-Jun-20 03:00N 38°01' E 023°35'0 0.0
2017-Jun-20 02:30N 38°01' E 023°35'0 0.0
2017-Jun-20 02:00N 38°01' E 023°35'0 0.1
2017-Jun-20 01:30N 38°01' E 023°35'1 1.2
2017-Jun-20 01:00N 38°02' E 023°36'0 0.1
2017-Jun-20 00:30N 38°02' E 023°36'0 0.0
2017-Jun-20 00:00N 38°02' E 023°36'0 0.0
2017-Jun-19 23:30N 38°02' E 023°36'0 0.0
2017-Jun-19 23:00N 38°02' E 023°36'0 0.0
2017-Jun-19 22:30N 38°02' E 023°36'0 0.0
2017-Jun-19 22:00N 38°02' E 023°36'0 0.0
2017-Jun-19 21:30N 38°02' E 023°36'0 0.0
2017-Jun-19 21:00N 38°02' E 023°36'0 0.0
2017-Jun-19 20:30N 38°02' E 023°36'0 0.0
2017-Jun-19 20:00N 38°02' E 023°36'0 0.0
2017-Jun-19 19:30N 38°02' E 023°36'0 0.0
2017-Jun-19 19:00N 38°02' E 023°36'0 0.0
2017-Jun-19 18:30N 38°02' E 023°36'0 0.0
2017-Jun-19 18:00N 38°02' E 023°36'0 0.0
2017-Jun-19 17:30N 38°02' E 023°36'0 0.0
2017-Jun-19 17:00N 38°02' E 023°36'0 0.0
2017-Jun-19 16:30N 38°02' E 023°36'0 0.0
2017-Jun-19 16:00N 38°02' E 023°36'0 0.0
2017-Jun-19 15:30N 38°02' E 023°36'0 0.0
2017-Jun-19 15:00N 38°02' E 023°36'3 3.3
2017-Jun-19 14:00N 37°59' E 023°33'3 6.5
2017-Jun-19 13:30N 37°56' E 023°34'1 2.6
2017-Jun-19 13:00N 37°55' E 023°33'0 0.0
2017-Jun-19 12:30N 37°55' E 023°33'0 0.0
2017-Jun-19 12:00N 37°55' E 023°33'0 0.0
2017-Jun-19 11:30N 37°55' E 023°33'0 0.0
2017-Jun-19 11:00N 37°55' E 023°33'0 0.0
2017-Jun-19 10:30N 37°55' E 023°33'0 0.0
2017-Jun-19 10:00N 37°55' E 023°33'0 0.0
2017-Jun-19 09:30N 37°55' E 023°33'0 0.0
2017-Jun-19 09:00N 37°55' E 023°33'0 0.0
2017-Jun-19 08:30N 37°55' E 023°33'0 0.0
2017-Jun-19 08:00N 37°55' E 023°33'0 0.0
2017-Jun-19 07:30N 37°55' E 023°33'0 0.0
2017-Jun-19 07:00N 37°55' E 023°33'0 0.1
2017-Jun-19 06:30N 37°55' E 023°33'0 0.0
2017-Jun-19 06:00N 37°55' E 023°33'0 0.0
2017-Jun-19 05:30N 37°55' E 023°33'0 0.0
2017-Jun-19 05:00N 37°55' E 023°33'0 0.0
2017-Jun-19 04:30N 37°55' E 023°33'0 0.0
2017-Jun-19 04:00N 37°55' E 023°33'0 0.0
2017-Jun-19 03:30N 37°55' E 023°33'0 0.0
2017-Jun-19 03:00N 37°55' E 023°33'0 0.0
2017-Jun-19 02:30N 37°55' E 023°33'0 0.0
2017-Jun-19 02:00N 37°55' E 023°33'0 0.0
2017-Jun-19 01:30N 37°55' E 023°33'0 0.0
2017-Jun-19 01:00N 37°55' E 023°33'0 0.0
2017-Jun-19 00:30N 37°55' E 023°33'0 0.0
2017-Jun-19 00:00N 37°55' E 023°33'0 0.0
2017-Jun-18 23:30N 37°55' E 023°33'0 0.0
2017-Jun-18 23:00N 37°55' E 023°33'0 0.0
2017-Jun-18 22:30N 37°55' E 023°33'0 0.0
2017-Jun-18 22:00N 37°55' E 023°33'0 0.0
2017-Jun-18 21:30N 37°55' E 023°33'0 0.0
2017-Jun-18 21:00N 37°55' E 023°33'0 0.0
2017-Jun-18 20:30N 37°55' E 023°33'0 0.0
2017-Jun-18 20:00N 37°55' E 023°33'0 0.1
2017-Jun-18 19:30N 37°55' E 023°33'0 0.0
2017-Jun-18 19:00N 37°55' E 023°33'0 0.0
2017-Jun-18 18:30N 37°55' E 023°33'0 0.0
2017-Jun-18 18:00N 37°55' E 023°33'0 0.0
2017-Jun-18 17:30N 37°55' E 023°33'0 0.0
2017-Jun-18 17:00N 37°55' E 023°33'0 0.0
2017-Jun-18 16:30N 37°55' E 023°33'0 0.0
2017-Jun-18 16:00N 37°55' E 023°33'0 0.0
2017-Jun-18 15:30N 37°55' E 023°33'0 0.0
2017-Jun-18 15:00N 37°55' E 023°33'0 0.1
2017-Jun-18 14:00N 37°55' E 023°33'0 0.0
2017-Jun-18 13:30N 37°55' E 023°33'0 0.0
2017-Jun-18 13:00N 37°55' E 023°33'0 0.1
2017-Jun-18 12:30N 37°55' E 023°33'0 0.0
2017-Jun-18 12:00N 37°55' E 023°33'0 0.0
2017-Jun-18 11:30N 37°55' E 023°33'0 0.0
2017-Jun-18 11:00N 37°55' E 023°33'0 0.0
2017-Jun-18 10:30N 37°55' E 023°33'0 0.1
2017-Jun-18 10:00N 37°55' E 023°33'0 0.0
2017-Jun-18 09:30N 37°55' E 023°33'0 0.1
2017-Jun-18 09:00N 37°55' E 023°33'0 0.0
2017-Jun-18 08:30N 37°55' E 023°33'0 0.0
2017-Jun-18 08:00N 37°55' E 023°33'0 0.0
2017-Jun-18 07:30N 37°55' E 023°33'0 0.0
2017-Jun-18 07:00N 37°55' E 023°33'0 0.0
2017-Jun-18 06:30N 37°55' E 023°33'0 0.0
2017-Jun-18 06:00N 37°55' E 023°33'0 0.0
2017-Jun-18 05:30N 37°55' E 023°33'0 0.0
2017-Jun-18 05:00N 37°55' E 023°33'0 0.0
2017-Jun-18 04:30N 37°55' E 023°33'0 0.0
2017-Jun-18 04:00N 37°55' E 023°33'0 0.0
2017-Jun-18 03:30N 37°55' E 023°33'0 0.0
2017-Jun-18 03:00N 37°55' E 023°33'0 0.0
2017-Jun-18 02:30N 37°55' E 023°33'0 0.0
2017-Jun-18 02:00N 37°55' E 023°33'0 0.1
2017-Jun-18 01:30N 37°55' E 023°33'0 0.0
2017-Jun-18 01:00N 37°55' E 023°33'0 0.0
2017-Jun-18 00:30N 37°55' E 023°33'0 0.0
2017-Jun-18 00:00N 37°55' E 023°33'0 0.0
2017-Jun-17 23:30N 37°55' E 023°33'0 0.0
2017-Jun-17 23:00N 37°55' E 023°33'0 0.0
2017-Jun-17 22:30N 37°55' E 023°33'0 0.0
2017-Jun-17 22:00N 37°55' E 023°33'0 0.0
2017-Jun-17 21:30N 37°55' E 023°33'0 0.0
2017-Jun-17 21:00N 37°55' E 023°33'0 0.1
2017-Jun-17 20:30N 37°55' E 023°33'0 0.0
2017-Jun-17 20:00N 37°55' E 023°33'0 0.1
2017-Jun-17 19:30N 37°55' E 023°33'0 0.0
2017-Jun-17 19:00N 37°55' E 023°33'0 0.0
2017-Jun-17 18:30N 37°55' E 023°33'0 0.0
2017-Jun-17 18:00N 37°55' E 023°33'0 0.0
2017-Jun-17 17:30N 37°55' E 023°33'0 0.2
2017-Jun-17 17:00N 37°55' E 023°33'0 0.0
2017-Jun-17 16:30N 37°55' E 023°33'0 0.0
2017-Jun-17 16:00N 37°55' E 023°33'0 0.0
2017-Jun-17 15:30N 37°55' E 023°33'0 0.0
2017-Jun-17 15:00N 37°55' E 023°33'0 0.0
2017-Jun-17 14:00N 37°55' E 023°33'0 0.0
2017-Jun-17 13:30N 37°55' E 023°33'0 0.0
2017-Jun-17 13:00N 37°55' E 023°33'0 0.0
2017-Jun-17 12:30N 37°55' E 023°33'0 0.0
2017-Jun-17 12:00N 37°55' E 023°33'0 0.0
2017-Jun-17 11:30N 37°55' E 023°33'0 0.0
2017-Jun-17 11:00N 37°55' E 023°33'0 0.0
2017-Jun-17 10:30N 37°55' E 023°33'0 0.0
2017-Jun-17 10:00N 37°55' E 023°33'0 0.0
2017-Jun-17 09:30N 37°55' E 023°33'0 0.0
2017-Jun-17 09:00N 37°55' E 023°33'0 0.0
2017-Jun-17 08:30N 37°55' E 023°33'0 0.0
2017-Jun-17 08:00N 37°55' E 023°33'0 0.0
2017-Jun-17 07:30N 37°55' E 023°33'0 0.0
2017-Jun-17 07:00N 37°55' E 023°33'0 0.0
2017-Jun-17 06:30N 37°55' E 023°33'0 0.1
2017-Jun-17 06:00N 37°55' E 023°33'0 0.1
2017-Jun-17 05:30N 37°55' E 023°33'0 0.1
2017-Jun-17 05:00N 37°55' E 023°33'0 0.0
2017-Jun-17 04:30N 37°55' E 023°33'0 0.0
2017-Jun-17 04:00N 37°55' E 023°33'0 0.0
2017-Jun-17 03:30N 37°55' E 023°33'0 0.0
2017-Jun-17 03:00N 37°55' E 023°33'0 0.0
2017-Jun-17 02:30N 37°55' E 023°33'0 0.0
2017-Jun-17 02:00N 37°55' E 023°33'0 0.0
2017-Jun-17 01:30N 37°55' E 023°33'0 0.0
2017-Jun-17 01:00N 37°55' E 023°33'0 0.0
2017-Jun-17 00:30N 37°55' E 023°33'0 0.0
2017-Jun-17 00:00N 37°55' E 023°33'0 0.0
2017-Jun-16 23:30N 37°55' E 023°33'0 0.0
2017-Jun-16 23:00N 37°55' E 023°33'0 0.0
2017-Jun-16 22:30N 37°55' E 023°33'0 0.0
2017-Jun-16 22:00N 37°55' E 023°33'0 0.0
2017-Jun-16 21:30N 37°55' E 023°33'0 0.0
2017-Jun-16 21:00N 37°55' E 023°33'0 0.0
2017-Jun-16 20:30N 37°55' E 023°33'0 0.0
2017-Jun-16 20:00N 37°55' E 023°33'0 0.0
2017-Jun-16 19:30N 37°55' E 023°33'0 0.0
2017-Jun-16 19:00N 37°55' E 023°33'0 0.0
2017-Jun-16 18:30N 37°55' E 023°33'0 0.0
2017-Jun-16 18:00N 37°55' E 023°33'0 0.1
2017-Jun-16 17:30N 37°55' E 023°33'0 0.1
2017-Jun-16 17:00N 37°55' E 023°33'0 0.0
2017-Jun-16 16:30N 37°55' E 023°33'0 0.2
2017-Jun-16 16:00N 37°55' E 023°33'0 0.1
2017-Jun-16 15:30N 37°55' E 023°33'0 0.1
2017-Jun-16 15:00N 37°55' E 023°33'0 0.1
2017-Jun-16 14:30N 37°55' E 023°33'0 0.0
2017-Jun-16 13:30N 37°55' E 023°33'0 0.0
2017-Jun-16 13:00N 37°55' E 023°33'0 0.1
2017-Jun-16 12:30N 37°55' E 023°33'0 0.1
2017-Jun-16 12:00N 37°55' E 023°33'0 0.0
2017-Jun-16 11:30N 37°55' E 023°33'0 0.1
2017-Jun-16 11:00N 37°55' E 023°33'0 0.1
2017-Jun-16 10:30N 37°55' E 023°33'0 0.0
2017-Jun-16 10:00N 37°55' E 023°33'0 0.0
2017-Jun-16 09:30N 37°55' E 023°33'0 0.0
2017-Jun-16 09:00N 37°55' E 023°33'0 0.0
2017-Jun-16 08:30N 37°55' E 023°33'0 0.0
2017-Jun-16 08:00N 37°55' E 023°33'0 0.0
2017-Jun-16 07:30N 37°55' E 023°33'0 0.0
2017-Jun-16 07:00N 37°55' E 023°33'0 0.0
2017-Jun-16 06:30N 37°55' E 023°33'0 0.0
2017-Jun-16 06:00N 37°55' E 023°33'0 0.0
2017-Jun-16 05:30N 37°55' E 023°33'0 0.1
2017-Jun-16 05:00N 37°55' E 023°33'0 0.0
2017-Jun-16 04:30N 37°55' E 023°33'0 0.0
2017-Jun-16 04:00N 37°55' E 023°33'0 0.0
2017-Jun-16 03:30N 37°55' E 023°33'0 0.1
2017-Jun-16 03:00N 37°55' E 023°33'0 0.0
2017-Jun-16 02:30N 37°55' E 023°33'0 0.0
2017-Jun-16 02:00N 37°55' E 023°33'0 0.1
2017-Jun-16 01:30N 37°55' E 023°33'0 0.0
2017-Jun-16 01:00N 37°55' E 023°33'0 0.0
2017-Jun-16 00:30N 37°55' E 023°33'0 0.0
2017-Jun-16 00:00N 37°55' E 023°33'0 0.0
2017-Jun-15 23:30N 37°55' E 023°33'0 0.1
2017-Jun-15 23:00N 37°55' E 023°33'2 4.3
2017-Jun-15 22:30N 37°57' E 023°35'1 1.0
2017-Jun-15 22:00N 37°57' E 023°35'0 0.0
2017-Jun-15 21:30N 37°57' E 023°35'0 0.0
2017-Jun-15 21:00N 37°57' E 023°35'0 0.0
2017-Jun-15 20:30N 37°57' E 023°35'0 0.0
2017-Jun-15 20:00N 37°57' E 023°35'0 0.0
2017-Jun-15 19:30N 37°57' E 023°35'0 0.0
2017-Jun-15 19:00N 37°57' E 023°35'2 3.7
2017-Jun-15 18:30N 37°56' E 023°34'0 0.9
2017-Jun-15 18:00N 37°55' E 023°33'0 0.0
2017-Jun-15 17:30N 37°55' E 023°33'0 0.0
2017-Jun-15 17:00N 37°55' E 023°33'0 0.0
2017-Jun-15 16:30N 37°55' E 023°33'0 0.0
2017-Jun-15 16:00N 37°55' E 023°34'0 0.8
2017-Jun-15 15:30N 37°55' E 023°33'0 0.1
2017-Jun-15 15:00N 37°55' E 023°33'0 0.0
2017-Jun-15 14:00N 37°55' E 023°33'0 0.0
2017-Jun-15 13:30N 37°55' E 023°33'0 0.0
2017-Jun-15 13:00N 37°55' E 023°33'0 0.0
2017-Jun-15 12:30N 37°55' E 023°33'0 0.1
2017-Jun-15 12:00N 37°55' E 023°33'0 0.1
2017-Jun-15 11:30N 37°55' E 023°33'1 1.5
2017-Jun-15 11:00N 37°55' E 023°34'0 0.0
2017-Jun-15 10:30N 37°55' E 023°34'0 0.1
2017-Jun-15 10:00N 37°55' E 023°34'0 0.1
2017-Jun-15 09:30N 37°55' E 023°34'0 0.1
2017-Jun-15 09:00N 37°55' E 023°34'0 0.0
2017-Jun-15 08:30N 37°55' E 023°34'0 0.0
2017-Jun-15 08:00N 37°55' E 023°34'0 0.1
2017-Jun-15 07:30N 37°55' E 023°34'0 0.2
2017-Jun-15 07:00N 37°55' E 023°34'1 1.3
2017-Jun-15 06:30N 37°55' E 023°33'0 0.3
2017-Jun-15 06:00N 37°55' E 023°33'1 1.1
2017-Jun-15 05:30N 37°55' E 023°34'3 6.3
2017-Jun-15 05:00N 37°58' E 023°33'4 7.7
2017-Jun-15 04:30N 38°02' E 023°32'0 0.0
2017-Jun-15 04:00N 38°02' E 023°32'0 0.0
2017-Jun-15 03:30N 38°02' E 023°32'0 0.0
2017-Jun-15 03:00N 38°02' E 023°32'0 0.0
2017-Jun-15 02:30N 38°02' E 023°32'0 0.0
2017-Jun-15 02:00N 38°02' E 023°32'0 0.0
2017-Jun-15 01:30N 38°02' E 023°32'0 0.0
2017-Jun-15 01:00N 38°02' E 023°32'0 0.0
2017-Jun-15 00:30N 38°02' E 023°32'0 0.0
2017-Jun-15 00:00N 38°02' E 023°32'0 0.0
2017-Jun-14 23:30N 38°02' E 023°32'0 0.0
2017-Jun-14 23:00N 38°02' E 023°32'0 0.0
2017-Jun-14 22:30N 38°02' E 023°32'0 0.1
2017-Jun-14 22:00N 38°02' E 023°32'0 0.0
2017-Jun-14 21:30N 38°02' E 023°32'0 0.0
2017-Jun-14 21:00N 38°02' E 023°32'0 0.0
2017-Jun-14 20:30N 38°02' E 023°32'0 0.0
2017-Jun-14 20:00N 38°02' E 023°32'0 0.0
2017-Jun-14 19:30N 38°02' E 023°32'0 0.1
2017-Jun-14 19:00N 38°02' E 023°32'0 0.1
2017-Jun-14 18:30N 38°02' E 023°32'0 0.0
2017-Jun-14 18:00N 38°02' E 023°32'0 0.0
2017-Jun-14 17:30N 38°02' E 023°32'0 0.0
2017-Jun-14 17:00N 38°02' E 023°32'0 0.2
2017-Jun-14 16:30N 38°02' E 023°32'3 5.5
2017-Jun-14 16:00N 37°59' E 023°33'4 7.2
2017-Jun-14 15:30N 37°56' E 023°34'3 6.5
2017-Jun-14 15:00N 37°53' E 023°31'0 0.0
2017-Jun-14 14:00N 37°53' E 023°31'0 0.0
2017-Jun-14 13:30N 37°53' E 023°31'0 0.0
2017-Jun-14 13:00N 37°53' E 023°31'0 0.0
2017-Jun-14 12:30N 37°53' E 023°31'0 0.0
2017-Jun-14 12:00N 37°53' E 023°31'0 0.0
2017-Jun-14 11:30N 37°53' E 023°31'0 0.0
2017-Jun-14 11:00N 37°53' E 023°31'0 0.0
2017-Jun-14 10:30N 37°53' E 023°31'0 0.0
2017-Jun-14 10:00N 37°53' E 023°31'0 0.1
2017-Jun-14 09:30N 37°53' E 023°31'0 0.1
2017-Jun-14 09:00N 37°53' E 023°31'1 2.7
2017-Jun-14 08:30N 37°53' E 023°30'2 4.2
2017-Jun-14 08:00N 37°52' E 023°27'4 7.3
2017-Jun-14 07:30N 37°52' E 023°23'4 7.8
2017-Jun-14 07:00N 37°53' E 023°18'4 8.1
2017-Jun-14 06:30N 37°53' E 023°13'4 8.1
2017-Jun-14 05:59N 37°54' E 023°08'2 1.1
2017-Jun-14 04:12N 37°55' E 023°05'  
Track history (hours):
 
Tides and Currents Weather Stations Pressure Air Temp Water Temp Dewpoint Dewpoint Depression Visibility Wind Speed Wind Dir Waves Ship Positions

Menalon

Last reported at 2017-Jun-23 22:00 UTC. Time now 2017-Jun-23 22:11 UTC.
Position N 37°56' E 023°34'.

Length 83 m; draft 4.2 m.

Type: Tanker. MMSI: 239741000.

Date/timePositionNaut miles runAvg speedWind from/ knotsBaromVisibWave heightAir tempDewpointWater temp
2017-Jun-23 22:00N 37°56' E 023°34'0 0.0
2017-Jun-23 21:30N 37°56' E 023°34'0 0.0
2017-Jun-23 21:00N 37°56' E 023°34'0 0.0
2017-Jun-23 20:30N 37°56' E 023°34'0 0.1
2017-Jun-23 20:00N 37°56' E 023°34'0 0.1
2017-Jun-23 19:30N 37°56' E 023°34'0 0.0
2017-Jun-23 19:00N 37°56' E 023°34'0 0.0
2017-Jun-23 18:30N 37°56' E 023°34'0 0.0
2017-Jun-23 18:00N 37°56' E 023°34'0 0.0
2017-Jun-23 17:30N 37°56' E 023°34'0 0.0
2017-Jun-23 17:00N 37°56' E 023°34'0 0.0
2017-Jun-23 16:30N 37°56' E 023°34'0 0.0
2017-Jun-23 16:00N 37°56' E 023°34'0 0.0
2017-Jun-23 15:30N 37°56' E 023°34'0 0.0
2017-Jun-23 15:00N 37°56' E 023°34'0 0.0
2017-Jun-23 14:00N 37°56' E 023°34'0 0.0
2017-Jun-23 13:30N 37°56' E 023°34'0 0.0
2017-Jun-23 13:00N 37°56' E 023°34'0 0.0
2017-Jun-23 12:30N 37°56' E 023°34'0 0.0
2017-Jun-23 12:00N 37°56' E 023°34'0 0.0
2017-Jun-23 11:30N 37°56' E 023°34'0 0.0
2017-Jun-23 11:00N 37°56' E 023°34'0 0.0
2017-Jun-23 10:30N 37°56' E 023°34'0 0.0
2017-Jun-23 10:00N 37°56' E 023°34'0 0.0
2017-Jun-23 09:30N 37°56' E 023°34'0 0.0
2017-Jun-23 09:00N 37°56' E 023°34'0 0.0
2017-Jun-23 08:30N 37°56' E 023°34'0 0.0
2017-Jun-23 08:00N 37°56' E 023°34'0 0.1
2017-Jun-23 07:30N 37°56' E 023°34'0 0.1
2017-Jun-23 07:00N 37°56' E 023°34'0 0.1
2017-Jun-23 06:30N 37°56' E 023°34'1 2.6
2017-Jun-23 06:00N 37°55' E 023°35'5 9.8
2017-Jun-23 05:30N 37°51' E 023°39'510.1
2017-Jun-23 05:00N 37°46' E 023°42'5 9.8
2017-Jun-23 04:30N 37°42' E 023°44'5 9.4
2017-Jun-23 04:00N 37°37' E 023°46'5 9.9
2017-Jun-23 03:30N 37°32' E 023°45'5 9.9
2017-Jun-23 03:00N 37°27' E 023°44'1210.0
2017-Jun-23 01:50N 37°16' E 023°42'29 9.8
2017-Jun-22 22:50N 36°47' E 023°38'91 9.5
2017-Jun-22 13:16N 35°16' E 023°30'2 9.0
2017-Jun-22 13:00N 35°14' E 023°31'143 2.8
2017-Jun-20 09:30N 37°37' E 023°43'5 9.1
2017-Jun-20 08:58N 37°42' E 023°41'4 9.4
2017-Jun-20 08:30N 37°46' E 023°39'5 9.3
2017-Jun-20 08:00N 37°50' E 023°36'5 9.4
2017-Jun-20 07:30N 37°54' E 023°34'1 2.8
2017-Jun-20 07:00N 37°55' E 023°33'0 0.0
2017-Jun-20 06:30N 37°55' E 023°33'0 0.0
2017-Jun-20 06:00N 37°55' E 023°33'0 0.0
2017-Jun-20 05:30N 37°55' E 023°33'0 0.1
2017-Jun-20 05:00N 37°55' E 023°33'2 3.8
2017-Jun-20 04:30N 37°57' E 023°34'3 6.4
2017-Jun-20 04:00N 38°00' E 023°33'2 3.4
2017-Jun-20 03:30N 38°01' E 023°35'0 0.0
2017-Jun-20 03:00N 38°01' E 023°35'0 0.0
2017-Jun-20 02:30N 38°01' E 023°35'0 0.0
2017-Jun-20 02:00N 38°01' E 023°35'0 0.1
2017-Jun-20 01:30N 38°01' E 023°35'1 1.2
2017-Jun-20 01:00N 38°02' E 023°36'0 0.1
2017-Jun-20 00:30N 38°02' E 023°36'0 0.0
2017-Jun-20 00:00N 38°02' E 023°36'0 0.0
2017-Jun-19 23:30N 38°02' E 023°36'0 0.0
2017-Jun-19 23:00N 38°02' E 023°36'0 0.0
2017-Jun-19 22:30N 38°02' E 023°36'0 0.0
2017-Jun-19 22:00N 38°02' E 023°36'0 0.0
2017-Jun-19 21:30N 38°02' E 023°36'0 0.0
2017-Jun-19 21:00N 38°02' E 023°36'0 0.0
2017-Jun-19 20:30N 38°02' E 023°36'0 0.0
2017-Jun-19 20:00N 38°02' E 023°36'0 0.0
2017-Jun-19 19:30N 38°02' E 023°36'0 0.0
2017-Jun-19 19:00N 38°02' E 023°36'0 0.0
2017-Jun-19 18:30N 38°02' E 023°36'0 0.0
2017-Jun-19 18:00N 38°02' E 023°36'0 0.0
2017-Jun-19 17:30N 38°02' E 023°36'0 0.0
2017-Jun-19 17:00N 38°02' E 023°36'0 0.0
2017-Jun-19 16:30N 38°02' E 023°36'0 0.0
2017-Jun-19 16:00N 38°02' E 023°36'0 0.0
2017-Jun-19 15:30N 38°02' E 023°36'0 0.0
2017-Jun-19 15:00N 38°02' E 023°36'3 3.3
2017-Jun-19 14:00N 37°59' E 023°33'3 6.5
2017-Jun-19 13:30N 37°56' E 023°34'1 2.6
2017-Jun-19 13:00N 37°55' E 023°33'0 0.0
2017-Jun-19 12:30N 37°55' E 023°33'0 0.0
2017-Jun-19 12:00N 37°55' E 023°33'0 0.0
2017-Jun-19 11:30N 37°55' E 023°33'0 0.0
2017-Jun-19 11:00N 37°55' E 023°33'0 0.0
2017-Jun-19 10:30N 37°55' E 023°33'0 0.0
2017-Jun-19 10:00N 37°55' E 023°33'0 0.0
2017-Jun-19 09:30N 37°55' E 023°33'0 0.0
2017-Jun-19 09:00N 37°55' E 023°33'0 0.0
2017-Jun-19 08:30N 37°55' E 023°33'0 0.0
2017-Jun-19 08:00N 37°55' E 023°33'0 0.0
2017-Jun-19 07:30N 37°55' E 023°33'0 0.0
2017-Jun-19 07:00N 37°55' E 023°33'0 0.1
2017-Jun-19 06:30N 37°55' E 023°33'0 0.0
2017-Jun-19 06:00N 37°55' E 023°33'0 0.0
2017-Jun-19 05:30N 37°55' E 023°33'0 0.0
2017-Jun-19 05:00N 37°55' E 023°33'0 0.0
2017-Jun-19 04:30N 37°55' E 023°33'0 0.0
2017-Jun-19 04:00N 37°55' E 023°33'0 0.0
2017-Jun-19 03:30N 37°55' E 023°33'0 0.0
2017-Jun-19 03:00N 37°55' E 023°33'0 0.0
2017-Jun-19 02:30N 37°55' E 023°33'0 0.0
2017-Jun-19 02:00N 37°55' E 023°33'0 0.0
2017-Jun-19 01:30N 37°55' E 023°33'0 0.0
2017-Jun-19 01:00N 37°55' E 023°33'0 0.0
2017-Jun-19 00:30N 37°55' E 023°33'0 0.0
2017-Jun-19 00:00N 37°55' E 023°33'0 0.0
2017-Jun-18 23:30N 37°55' E 023°33'0 0.0
2017-Jun-18 23:00N 37°55' E 023°33'0 0.0
2017-Jun-18 22:30N 37°55' E 023°33'0 0.0
2017-Jun-18 22:00N 37°55' E 023°33'0 0.0
2017-Jun-18 21:30N 37°55' E 023°33'0 0.0
2017-Jun-18 21:00N 37°55' E 023°33'0 0.0
2017-Jun-18 20:30N 37°55' E 023°33'0 0.0
2017-Jun-18 20:00N 37°55' E 023°33'0 0.1
2017-Jun-18 19:30N 37°55' E 023°33'0 0.0
2017-Jun-18 19:00N 37°55' E 023°33'0 0.0
2017-Jun-18 18:30N 37°55' E 023°33'0 0.0
2017-Jun-18 18:00N 37°55' E 023°33'0 0.0
2017-Jun-18 17:30N 37°55' E 023°33'0 0.0
2017-Jun-18 17:00N 37°55' E 023°33'0 0.0
2017-Jun-18 16:30N 37°55' E 023°33'0 0.0
2017-Jun-18 16:00N 37°55' E 023°33'0 0.0
2017-Jun-18 15:30N 37°55' E 023°33'0 0.0
2017-Jun-18 15:00N 37°55' E 023°33'0 0.1
2017-Jun-18 14:00N 37°55' E 023°33'0 0.0
2017-Jun-18 13:30N 37°55' E 023°33'0 0.0
2017-Jun-18 13:00N 37°55' E 023°33'0 0.1
2017-Jun-18 12:30N 37°55' E 023°33'0 0.0
2017-Jun-18 12:00N 37°55' E 023°33'0 0.0
2017-Jun-18 11:30N 37°55' E 023°33'0 0.0
2017-Jun-18 11:00N 37°55' E 023°33'0 0.0
2017-Jun-18 10:30N 37°55' E 023°33'0 0.1
2017-Jun-18 10:00N 37°55' E 023°33'0 0.0
2017-Jun-18 09:30N 37°55' E 023°33'0 0.1
2017-Jun-18 09:00N 37°55' E 023°33'0 0.0
2017-Jun-18 08:30N 37°55' E 023°33'0 0.0
2017-Jun-18 08:00N 37°55' E 023°33'0 0.0
2017-Jun-18 07:30N 37°55' E 023°33'0 0.0
2017-Jun-18 07:00N 37°55' E 023°33'0 0.0
2017-Jun-18 06:30N 37°55' E 023°33'0 0.0
2017-Jun-18 06:00N 37°55' E 023°33'0 0.0
2017-Jun-18 05:30N 37°55' E 023°33'0 0.0
2017-Jun-18 05:00N 37°55' E 023°33'0 0.0
2017-Jun-18 04:30N 37°55' E 023°33'0 0.0
2017-Jun-18 04:00N 37°55' E 023°33'0 0.0
2017-Jun-18 03:30N 37°55' E 023°33'0 0.0
2017-Jun-18 03:00N 37°55' E 023°33'0 0.0
2017-Jun-18 02:30N 37°55' E 023°33'0 0.0
2017-Jun-18 02:00N 37°55' E 023°33'0 0.1
2017-Jun-18 01:30N 37°55' E 023°33'0 0.0
2017-Jun-18 01:00N 37°55' E 023°33'0 0.0
2017-Jun-18 00:30N 37°55' E 023°33'0 0.0
2017-Jun-18 00:00N 37°55' E 023°33'0 0.0
2017-Jun-17 23:30N 37°55' E 023°33'0 0.0
2017-Jun-17 23:00N 37°55' E 023°33'0 0.0
2017-Jun-17 22:30N 37°55' E 023°33'0 0.0
2017-Jun-17 22:00N 37°55' E 023°33'0 0.0
2017-Jun-17 21:30N 37°55' E 023°33'0 0.0
2017-Jun-17 21:00N 37°55' E 023°33'0 0.1
2017-Jun-17 20:30N 37°55' E 023°33'0 0.0
2017-Jun-17 20:00N 37°55' E 023°33'0 0.1
2017-Jun-17 19:30N 37°55' E 023°33'0 0.0
2017-Jun-17 19:00N 37°55' E 023°33'0 0.0
2017-Jun-17 18:30N 37°55' E 023°33'0 0.0
2017-Jun-17 18:00N 37°55' E 023°33'0 0.0
2017-Jun-17 17:30N 37°55' E 023°33'0 0.2
2017-Jun-17 17:00N 37°55' E 023°33'0 0.0
2017-Jun-17 16:30N 37°55' E 023°33'0 0.0
2017-Jun-17 16:00N 37°55' E 023°33'0 0.0
2017-Jun-17 15:30N 37°55' E 023°33'0 0.0
2017-Jun-17 15:00N 37°55' E 023°33'0 0.0
2017-Jun-17 14:00N 37°55' E 023°33'0 0.0
2017-Jun-17 13:30N 37°55' E 023°33'0 0.0
2017-Jun-17 13:00N 37°55' E 023°33'0 0.0
2017-Jun-17 12:30N 37°55' E 023°33'0 0.0
2017-Jun-17 12:00N 37°55' E 023°33'0 0.0
2017-Jun-17 11:30N 37°55' E 023°33'0 0.0
2017-Jun-17 11:00N 37°55' E 023°33'0 0.0
2017-Jun-17 10:30N 37°55' E 023°33'0 0.0
2017-Jun-17 10:00N 37°55' E 023°33'0 0.0
2017-Jun-17 09:30N 37°55' E 023°33'0 0.0
2017-Jun-17 09:00N 37°55' E 023°33'0 0.0
2017-Jun-17 08:30N 37°55' E 023°33'0 0.0
2017-Jun-17 08:00N 37°55' E 023°33'0 0.0
2017-Jun-17 07:30N 37°55' E 023°33'0 0.0
2017-Jun-17 07:00N 37°55' E 023°33'0 0.0
2017-Jun-17 06:30N 37°55' E 023°33'0 0.1
2017-Jun-17 06:00N 37°55' E 023°33'0 0.1
2017-Jun-17 05:30N 37°55' E 023°33'0 0.1
2017-Jun-17 05:00N 37°55' E 023°33'0 0.0
2017-Jun-17 04:30N 37°55' E 023°33'0 0.0
2017-Jun-17 04:00N 37°55' E 023°33'0 0.0
2017-Jun-17 03:30N 37°55' E 023°33'0 0.0
2017-Jun-17 03:00N 37°55' E 023°33'0 0.0
2017-Jun-17 02:30N 37°55' E 023°33'0 0.0
2017-Jun-17 02:00N 37°55' E 023°33'0 0.0
2017-Jun-17 01:30N 37°55' E 023°33'0 0.0
2017-Jun-17 01:00N 37°55' E 023°33'0 0.0
2017-Jun-17 00:30N 37°55' E 023°33'0 0.0
2017-Jun-17 00:00N 37°55' E 023°33'0 0.0
2017-Jun-16 23:30N 37°55' E 023°33'0 0.0
2017-Jun-16 23:00N 37°55' E 023°33'0 0.0
2017-Jun-16 22:30N 37°55' E 023°33'0 0.0
2017-Jun-16 22:00N 37°55' E 023°33'0 0.0
2017-Jun-16 21:30N 37°55' E 023°33'0 0.0
2017-Jun-16 21:00N 37°55' E 023°33'0 0.0
2017-Jun-16 20:30N 37°55' E 023°33'0 0.0
2017-Jun-16 20:00N 37°55' E 023°33'0 0.0
2017-Jun-16 19:30N 37°55' E 023°33'0 0.0
2017-Jun-16 19:00N 37°55' E 023°33'0 0.0
2017-Jun-16 18:30N 37°55' E 023°33'0 0.0
2017-Jun-16 18:00N 37°55' E 023°33'0 0.1
2017-Jun-16 17:30N 37°55' E 023°33'0 0.1
2017-Jun-16 17:00N 37°55' E 023°33'0 0.0
2017-Jun-16 16:30N 37°55' E 023°33'0 0.2
2017-Jun-16 16:00N 37°55' E 023°33'0 0.1
2017-Jun-16 15:30N 37°55' E 023°33'0 0.1
2017-Jun-16 15:00N 37°55' E 023°33'0 0.1
2017-Jun-16 14:30N 37°55' E 023°33'0 0.0
2017-Jun-16 13:30N 37°55' E 023°33'0 0.0
2017-Jun-16 13:00N 37°55' E 023°33'0 0.1
2017-Jun-16 12:30N 37°55' E 023°33'0 0.1
2017-Jun-16 12:00N 37°55' E 023°33'0 0.0
2017-Jun-16 11:30N 37°55' E 023°33'0 0.1
2017-Jun-16 11:00N 37°55' E 023°33'0 0.1
2017-Jun-16 10:30N 37°55' E 023°33'0 0.0
2017-Jun-16 10:00N 37°55' E 023°33'0 0.0
2017-Jun-16 09:30N 37°55' E 023°33'0 0.0
2017-Jun-16 09:00N 37°55' E 023°33'0 0.0
2017-Jun-16 08:30N 37°55' E 023°33'0 0.0
2017-Jun-16 08:00N 37°55' E 023°33'0 0.0
2017-Jun-16 07:30N 37°55' E 023°33'0 0.0
2017-Jun-16 07:00N 37°55' E 023°33'0 0.0
2017-Jun-16 06:30N 37°55' E 023°33'0 0.0
2017-Jun-16 06:00N 37°55' E 023°33'0 0.0
2017-Jun-16 05:30N 37°55' E 023°33'0 0.1
2017-Jun-16 05:00N 37°55' E 023°33'0 0.0
2017-Jun-16 04:30N 37°55' E 023°33'0 0.0
2017-Jun-16 04:00N 37°55' E 023°33'0 0.0
2017-Jun-16 03:30N 37°55' E 023°33'0 0.1
2017-Jun-16 03:00N 37°55' E 023°33'0 0.0
2017-Jun-16 02:30N 37°55' E 023°33'0 0.0
2017-Jun-16 02:00N 37°55' E 023°33'0 0.1
2017-Jun-16 01:30N 37°55' E 023°33'0 0.0
2017-Jun-16 01:00N 37°55' E 023°33'0 0.0
2017-Jun-16 00:30N 37°55' E 023°33'0 0.0
2017-Jun-16 00:00N 37°55' E 023°33'0 0.0
2017-Jun-15 23:30N 37°55' E 023°33'0 0.1
2017-Jun-15 23:00N 37°55' E 023°33'2 4.3
2017-Jun-15 22:30N 37°57' E 023°35'1 1.0
2017-Jun-15 22:00N 37°57' E 023°35'0 0.0
2017-Jun-15 21:30N 37°57' E 023°35'0 0.0
2017-Jun-15 21:00N 37°57' E 023°35'0 0.0
2017-Jun-15 20:30N 37°57' E 023°35'0 0.0
2017-Jun-15 20:00N 37°57' E 023°35'0 0.0
2017-Jun-15 19:30N 37°57' E 023°35'0 0.0
2017-Jun-15 19:00N 37°57' E 023°35'2 3.7
2017-Jun-15 18:30N 37°56' E 023°34'0 0.9
2017-Jun-15 18:00N 37°55' E 023°33'0 0.0
2017-Jun-15 17:30N 37°55' E 023°33'0 0.0
2017-Jun-15 17:00N 37°55' E 023°33'0 0.0
2017-Jun-15 16:30N 37°55' E 023°33'0 0.0
2017-Jun-15 16:00N 37°55' E 023°34'0 0.8
2017-Jun-15 15:30N 37°55' E 023°33'0 0.1
2017-Jun-15 15:00N 37°55' E 023°33'0 0.0
2017-Jun-15 14:00N 37°55' E 023°33'0 0.0
2017-Jun-15 13:30N 37°55' E 023°33'0 0.0
2017-Jun-15 13:00N 37°55' E 023°33'0 0.0
2017-Jun-15 12:30N 37°55' E 023°33'0 0.1
2017-Jun-15 12:00N 37°55' E 023°33'0 0.1
2017-Jun-15 11:30N 37°55' E 023°33'1 1.5
2017-Jun-15 11:00N 37°55' E 023°34'0 0.0
2017-Jun-15 10:30N 37°55' E 023°34'0 0.1
2017-Jun-15 10:00N 37°55' E 023°34'0 0.1
2017-Jun-15 09:30N 37°55' E 023°34'0 0.1
2017-Jun-15 09:00N 37°55' E 023°34'0 0.0
2017-Jun-15 08:30N 37°55' E 023°34'0 0.0
2017-Jun-15 08:00N 37°55' E 023°34'0 0.1
2017-Jun-15 07:30N 37°55' E 023°34'0 0.2
2017-Jun-15 07:00N 37°55' E 023°34'1 1.3
2017-Jun-15 06:30N 37°55' E 023°33'0 0.3
2017-Jun-15 06:00N 37°55' E 023°33'1 1.1
2017-Jun-15 05:30N 37°55' E 023°34'3 6.3
2017-Jun-15 05:00N 37°58' E 023°33'4 7.7
2017-Jun-15 04:30N 38°02' E 023°32'0 0.0
2017-Jun-15 04:00N 38°02' E 023°32'0 0.0
2017-Jun-15 03:30N 38°02' E 023°32'0 0.0
2017-Jun-15 03:00N 38°02' E 023°32'0 0.0
2017-Jun-15 02:30N 38°02' E 023°32'0 0.0
2017-Jun-15 02:00N 38°02' E 023°32'0 0.0
2017-Jun-15 01:30N 38°02' E 023°32'0 0.0
2017-Jun-15 01:00N 38°02' E 023°32'0 0.0
2017-Jun-15 00:30N 38°02' E 023°32'0 0.0
2017-Jun-15 00:00N 38°02' E 023°32'0 0.0
2017-Jun-14 23:30N 38°02' E 023°32'0 0.0
2017-Jun-14 23:00N 38°02' E 023°32'0 0.0
2017-Jun-14 22:30N 38°02' E 023°32'0 0.1
2017-Jun-14 22:00N 38°02' E 023°32'0 0.0
2017-Jun-14 21:30N 38°02' E 023°32'0 0.0
2017-Jun-14 21:00N 38°02' E 023°32'0 0.0
2017-Jun-14 20:30N 38°02' E 023°32'0 0.0
2017-Jun-14 20:00N 38°02' E 023°32'0 0.0
2017-Jun-14 19:30N 38°02' E 023°32'0 0.1
2017-Jun-14 19:00N 38°02' E 023°32'0 0.1
2017-Jun-14 18:30N 38°02' E 023°32'0 0.0
2017-Jun-14 18:00N 38°02' E 023°32'0 0.0
2017-Jun-14 17:30N 38°02' E 023°32'0 0.0
2017-Jun-14 17:00N 38°02' E 023°32'0 0.2
2017-Jun-14 16:30N 38°02' E 023°32'3 5.5
2017-Jun-14 16:00N 37°59' E 023°33'4 7.2
2017-Jun-14 15:30N 37°56' E 023°34'3 6.5
2017-Jun-14 15:00N 37°53' E 023°31'0 0.0
2017-Jun-14 14:00N 37°53' E 023°31'0 0.0
2017-Jun-14 13:30N 37°53' E 023°31'0 0.0
2017-Jun-14 13:00N 37°53' E 023°31'0 0.0
2017-Jun-14 12:30N 37°53' E 023°31'0 0.0
2017-Jun-14 12:00N 37°53' E 023°31'0 0.0
2017-Jun-14 11:30N 37°53' E 023°31'0 0.0
2017-Jun-14 11:00N 37°53' E 023°31'0 0.0
2017-Jun-14 10:30N 37°53' E 023°31'0 0.0
2017-Jun-14 10:00N 37°53' E 023°31'0 0.1
2017-Jun-14 09:30N 37°53' E 023°31'0 0.1
2017-Jun-14 09:00N 37°53' E 023°31'1 2.7
2017-Jun-14 08:30N 37°53' E 023°30'2 4.2
2017-Jun-14 08:00N 37°52' E 023°27'4 7.3
2017-Jun-14 07:30N 37°52' E 023°23'4 7.8
2017-Jun-14 07:00N 37°53' E 023°18'4 8.1
2017-Jun-14 06:30N 37°53' E 023°13'4 8.1
2017-Jun-14 05:59N 37°54' E 023°08'2 1.1
2017-Jun-14 04:12N 37°55' E 023°05'  

Dump ship's entire track history